Time;durP1;ratioP1;P1;durP2;ratioP2;P2;SDS_P1;SDS_P2;PMS_P1;PMS_P2;Temp;Humidity;BMP_temperature;BMP_pressure;BME280_temperature;BME280_humidity;BME280_pressure;Samples;Min_cycle;Max_cycle;Signal;HPM_P1;HPM_P2
2023/01/22 00:01:48;;;;;;;9.50;8.10;;;;;;;;;;5063413;28;20257;-67
2023/01/22 00:04:15;;;;;;;12.10;8.00;;;;;;;;;;5051434;28;20273;-67
2023/01/22 00:06:40;;;;;;;12.20;8.50;;;;;;;;;;5053026;28;20194;-67
2023/01/22 00:09:06;;;;;;;11.90;8.60;;;;;;;;;;5056572;28;21107;-67
2023/01/22 00:11:31;;;;;;;8.17;6.63;;;;;;;;;;5065096;28;20198;-67
2023/01/22 00:13:56;;;;;;;11.10;7.40;;;;;;;;;;5069738;28;20208;-66
2023/01/22 00:16:22;;;;;;;10.07;7.77;;;;;;;;;;5069352;28;20289;-67
2023/01/22 00:18:47;;;;;;;8.40;7.40;;;;;;;;;;5069967;28;20764;-68
2023/01/22 00:21:13;;;;;;;12.10;8.70;;;;;;;;;;5069501;28;20228;-66
2023/01/22 00:23:39;;;;;;;12.07;7.40;;;;;;;;;;5070371;28;20195;-67
2023/01/22 00:26:06;;;;;;;10.07;7.67;;;;;;;;;;5069564;28;20551;-68
2023/01/22 00:28:32;;;;;;;8.77;6.73;;;;;;;;;;5069541;28;20440;-67
2023/01/22 00:30:59;;;;;;;12.53;8.00;;;;;;;;;;5058211;28;20490;-67
2023/01/22 00:33:25;;;;;;;9.40;7.87;;;;;;;;;;5064104;28;21871;-67
2023/01/22 00:35:50;;;;;;;11.37;8.10;;;;;;;;;;5057013;28;20479;-68
2023/01/22 00:38:15;;;;;;;9.97;8.27;;;;;;;;;;5054482;28;20224;-67
2023/01/22 00:40:41;;;;;;;9.80;7.73;;;;;;;;;;5058643;28;20689;-67
2023/01/22 00:43:06;;;;;;;10.10;7.00;;;;;;;;;;5059308;28;20179;-66
2023/01/22 00:45:32;;;;;;;11.40;8.20;;;;;;;;;;5066818;28;20696;-67
2023/01/22 00:47:58;;;;;;;10.63;7.50;;;;;;;;;;5063493;28;20185;-66
2023/01/22 00:50:24;;;;;;;11.53;8.07;;;;;;;;;;5051376;28;20524;-67
2023/01/22 00:52:49;;;;;;;10.90;8.00;;;;;;;;;;5054006;28;20271;-66
2023/01/22 00:55:15;;;;;;;9.40;7.23;;;;;;;;;;5057934;28;20186;-68
2023/01/22 00:57:40;;;;;;;9.03;6.90;;;;;;;;;;5053139;28;20198;-67
2023/01/22 01:00:06;;;;;;;9.77;6.63;;;;;;;;;;5058407;28;20175;-68
2023/01/22 01:02:32;;;;;;;10.90;7.10;;;;;;;;;;5051427;28;20182;-67
2023/01/22 01:04:57;;;;;;;8.77;7.60;;;;;;;;;;5061968;28;20490;-66
2023/01/22 01:07:23;;;;;;;9.93;7.37;;;;;;;;;;5063782;28;20699;-67
2023/01/22 01:09:48;;;;;;;9.90;7.87;;;;;;;;;;5067155;28;20272;-67
2023/01/22 01:12:13;;;;;;;10.27;7.77;;;;;;;;;;5065572;28;20224;-67
2023/01/22 01:14:39;;;;;;;9.20;6.90;;;;;;;;;;5060652;28;20171;-67
2023/01/22 01:17:04;;;;;;;11.37;7.60;;;;;;;;;;5060923;28;20209;-66
2023/01/22 01:19:30;;;;;;;10.50;8.00;;;;;;;;;;5066242;28;20261;-69
2023/01/22 01:21:55;;;;;;;9.67;7.60;;;;;;;;;;5059099;28;20828;-68
2023/01/22 01:24:21;;;;;;;8.57;7.63;;;;;;;;;;5069408;28;20310;-67
2023/01/22 01:26:46;;;;;;;9.63;8.20;;;;;;;;;;5046001;28;20212;-66
2023/01/22 01:29:11;;;;;;;9.63;7.20;;;;;;;;;;5064962;28;20178;-66
2023/01/22 01:31:37;;;;;;;10.23;8.27;;;;;;;;;;5057844;28;20263;-66
2023/01/22 01:34:03;;;;;;;15.03;7.80;;;;;;;;;;5060951;28;20178;-68
2023/01/22 01:36:29;;;;;;;11.80;8.53;;;;;;;;;;5063307;28;20190;-66
2023/01/22 01:38:55;;;;;;;11.70;8.67;;;;;;;;;;5059092;28;20175;-67
2023/01/22 01:41:25;;;;;;;9.43;8.00;;;;;;;;;;5057058;28;20174;-66
2023/01/22 01:44:07;;;;;;;15.10;8.77;;;;;;;;;;5061679;28;20647;-66
2023/01/22 01:46:37;;;;;;;12.07;8.20;;;;;;;;;;5062301;28;20448;-67
2023/01/22 01:49:03;;;;;;;12.80;9.73;;;;;;;;;;5062378;28;20494;-68
2023/01/22 01:51:34;;;;;;;10.87;8.80;;;;;;;;;;5061848;28;20540;-67
2023/01/22 01:54:02;;;;;;;13.73;8.77;;;;;;;;;;5060501;28;20430;-67
2023/01/22 01:56:33;;;;;;;12.77;9.20;;;;;;;;;;5061983;28;20470;-67
2023/01/22 01:59:02;;;;;;;13.73;9.20;;;;;;;;;;5063884;28;20447;-67
2023/01/22 02:01:29;;;;;;;11.53;9.30;;;;;;;;;;5064174;28;20448;-67
2023/01/22 02:03:56;;;;;;;13.90;9.80;;;;;;;;;;5066079;28;20495;-67
2023/01/22 02:06:22;;;;;;;13.70;10.27;;;;;;;;;;5060427;28;20457;-66
2023/01/22 02:08:49;;;;;;;12.00;9.10;;;;;;;;;;5064796;28;20432;-66
2023/01/22 02:11:16;;;;;;;11.70;9.57;;;;;;;;;;5070224;28;20883;-67
2023/01/22 02:13:46;;;;;;;15.97;10.40;;;;;;;;;;5072660;28;20408;-66
2023/01/22 02:16:12;;;;;;;13.07;8.37;;;;;;;;;;5071553;28;20497;-65
2023/01/22 02:18:37;;;;;;;17.83;9.40;;;;;;;;;;5072421;28;20408;-67
2023/01/22 02:21:03;;;;;;;17.83;10.97;;;;;;;;;;5071466;28;20178;-67
2023/01/22 02:23:30;;;;;;;14.73;9.03;;;;;;;;;;5072055;28;20185;-66
2023/01/22 02:25:57;;;;;;;13.27;9.90;;;;;;;;;;5053937;28;20251;-67
2023/01/22 02:28:22;;;;;;;14.27;10.33;;;;;;;;;;5071881;28;20423;-66
2023/01/22 02:30:48;;;;;;;13.93;10.10;;;;;;;;;;5071685;28;20412;-66
2023/01/22 02:33:15;;;;;;;12.60;9.73;;;;;;;;;;5068551;28;20203;-66
2023/01/22 02:35:40;;;;;;;16.40;9.70;;;;;;;;;;5057033;28;20209;-66
2023/01/22 02:38:06;;;;;;;14.40;9.90;;;;;;;;;;5059770;28;20465;-66
2023/01/22 02:40:32;;;;;;;18.37;11.07;;;;;;;;;;5066729;28;20182;-66
2023/01/22 02:42:58;;;;;;;15.57;10.77;;;;;;;;;;5060727;28;20485;-66
2023/01/22 02:45:23;;;;;;;12.90;9.40;;;;;;;;;;5062402;28;20437;-66
2023/01/22 02:47:49;;;;;;;16.50;9.70;;;;;;;;;;5063096;28;20225;-66
2023/01/22 02:50:15;;;;;;;17.83;10.47;;;;;;;;;;5061293;28;20174;-65
2023/01/22 02:52:40;;;;;;;16.37;10.33;;;;;;;;;;5061384;28;20237;-66
2023/01/22 02:55:06;;;;;;;15.00;10.57;;;;;;;;;;5067355;28;20478;-67
2023/01/22 02:57:32;;;;;;;15.43;10.80;;;;;;;;;;5059363;28;20259;-65
2023/01/22 02:59:57;;;;;;;17.03;10.70;;;;;;;;;;5065717;28;20556;-66
2023/01/22 03:02:24;;;;;;;15.27;11.00;;;;;;;;;;5071155;28;20507;-66
2023/01/22 03:04:50;;;;;;;11.60;8.93;;;;;;;;;;5055228;28;20189;-66
2023/01/22 03:07:18;;;;;;;28.63;11.30;;;;;;;;;;5065037;28;20513;-67
2023/01/22 03:09:44;;;;;;;12.93;10.20;;;;;;;;;;5065482;28;20216;-66
2023/01/22 03:12:11;;;;;;;15.70;10.53;;;;;;;;;;5066251;28;20469;-66
2023/01/22 03:22:49;;;;;;;16.43;11.40;;;;;;;;;;5066287;28;20450;-66
2023/01/22 03:25:14;;;;;;;18.50;10.40;;;;;;;;;;5062100;28;20437;-66
2023/01/22 03:28:07;;;;;;;17.43;11.50;;;;;;;;;;5055360;28;20563;-66
2023/01/22 03:30:25;;;;;;;18.10;10.33;;;;;;;;;;5057066;28;20186;-65
2023/01/22 03:32:50;;;;;;;16.60;10.20;;;;;;;;;;5065345;28;20467;-66
2023/01/22 03:35:16;;;;;;;15.80;11.97;;;;;;;;;;5065401;28;20185;-66
2023/01/22 03:37:41;;;;;;;15.40;10.77;;;;;;;;;;5063975;28;20222;-66
2023/01/22 03:40:08;;;;;;;17.20;11.00;;;;;;;;;;5052074;28;20183;-67
2023/01/22 03:42:34;;;;;;;17.33;11.57;;;;;;;;;;5064702;28;20170;-66
2023/01/22 03:44:59;;;;;;;16.70;10.73;;;;;;;;;;5063792;28;20436;-66
2023/01/22 03:47:24;;;;;;;18.30;11.10;;;;;;;;;;5064419;28;20297;-66
2023/01/22 03:49:50;;;;;;;14.37;10.83;;;;;;;;;;5070278;28;20262;-66
2023/01/22 03:52:15;;;;;;;17.40;11.40;;;;;;;;;;5069098;28;20204;-66
2023/01/22 03:54:41;;;;;;;15.73;10.53;;;;;;;;;;5032477;28;20805;-66
2023/01/22 03:57:06;;;;;;;19.07;12.13;;;;;;;;;;5050192;28;20201;-66
2023/01/22 03:59:31;;;;;;;22.30;11.60;;;;;;;;;;5050832;28;20174;-66
2023/01/22 04:01:57;;;;;;;21.30;14.53;;;;;;;;;;5052167;28;20628;-66
2023/01/22 04:04:22;;;;;;;18.70;11.80;;;;;;;;;;5049863;28;20166;-66
2023/01/22 04:06:48;;;;;;;15.63;11.03;;;;;;;;;;5054186;28;20197;-66
2023/01/22 04:09:13;;;;;;;19.80;11.53;;;;;;;;;;5069605;28;20166;-65
2023/01/22 04:11:39;;;;;;;14.50;10.77;;;;;;;;;;5069380;28;20213;-66
2023/01/22 04:14:04;;;;;;;18.60;11.60;;;;;;;;;;5069854;28;20269;-67
2023/01/22 04:16:29;;;;;;;15.73;9.37;;;;;;;;;;5069725;28;20600;-66
2023/01/22 04:18:55;;;;;;;15.60;10.83;;;;;;;;;;5069906;28;20267;-65
2023/01/22 04:21:20;;;;;;;18.33;10.40;;;;;;;;;;5069827;28;20570;-65
2023/01/22 04:23:46;;;;;;;23.70;13.27;;;;;;;;;;5070277;28;20166;-66
2023/01/22 04:26:11;;;;;;;22.00;12.63;;;;;;;;;;5069854;28;20274;-68
2023/01/22 04:28:36;;;;;;;20.27;11.53;;;;;;;;;;5069887;28;20181;-67
2023/01/22 04:31:03;;;;;;;18.63;11.30;;;;;;;;;;5069318;28;20224;-67
2023/01/22 04:33:28;;;;;;;17.37;11.50;;;;;;;;;;5069495;28;20237;-66
2023/01/22 04:35:54;;;;;;;18.50;12.77;;;;;;;;;;5069314;28;20463;-66
2023/01/22 04:38:19;;;;;;;17.63;10.67;;;;;;;;;;5073469;28;20166;-65
2023/01/22 04:40:45;;;;;;;18.80;11.67;;;;;;;;;;5075908;28;20178;-67
2023/01/22 04:43:11;;;;;;;18.80;11.50;;;;;;;;;;5059638;28;20190;-67
2023/01/22 04:45:36;;;;;;;19.53;11.40;;;;;;;;;;5061907;28;20212;-67
2023/01/22 04:48:02;;;;;;;14.50;9.80;;;;;;;;;;5065319;28;20205;-66
2023/01/22 04:50:31;;;;;;;17.87;10.90;;;;;;;;;;5069176;28;20206;-68
2023/01/22 04:52:58;;;;;;;19.53;11.60;;;;;;;;;;5072176;28;20254;-67
2023/01/22 04:55:24;;;;;;;16.07;11.13;;;;;;;;;;5065245;28;20494;-67
2023/01/22 04:57:54;;;;;;;16.70;11.97;;;;;;;;;;5060010;28;20483;-68
2023/01/22 05:00:19;;;;;;;19.70;11.50;;;;;;;;;;5068735;28;20428;-66
2023/01/22 05:02:45;;;;;;;20.73;11.23;;;;;;;;;;5066497;28;20588;-67
2023/01/22 05:05:10;;;;;;;20.20;10.90;;;;;;;;;;5071825;28;20248;-66
2023/01/22 05:07:36;;;;;;;19.93;12.10;;;;;;;;;;5068687;28;20201;-67
2023/01/22 05:10:01;;;;;;;17.17;11.47;;;;;;;;;;5067779;28;20189;-66
2023/01/22 05:12:27;;;;;;;15.27;10.90;;;;;;;;;;5059798;28;20203;-66
2023/01/22 05:14:52;;;;;;;21.67;12.10;;;;;;;;;;5060762;28;20192;-66
2023/01/22 05:17:18;;;;;;;20.83;11.83;;;;;;;;;;5070081;28;20229;-66
2023/01/22 05:19:43;;;;;;;18.97;11.17;;;;;;;;;;5070507;28;20237;-66
2023/01/22 05:22:09;;;;;;;20.80;12.00;;;;;;;;;;5063428;28;20174;-66
2023/01/22 05:24:34;;;;;;;24.73;11.50;;;;;;;;;;5061561;28;20206;-67
2023/01/22 05:27:00;;;;;;;20.27;12.90;;;;;;;;;;5062115;28;20209;-66
2023/01/22 05:29:26;;;;;;;25.70;13.30;;;;;;;;;;5074389;28;20182;-68
2023/01/22 05:31:56;;;;;;;23.27;11.90;;;;;;;;;;5046201;28;20203;-66
2023/01/22 05:34:22;;;;;;;16.33;9.87;;;;;;;;;;5059803;28;20670;-66
2023/01/22 05:36:48;;;;;;;19.20;12.93;;;;;;;;;;5060413;28;20858;-68
2023/01/22 05:39:14;;;;;;;18.73;12.00;;;;;;;;;;5061408;28;20436;-68
2023/01/22 05:41:40;;;;;;;21.40;12.07;;;;;;;;;;5068389;28;20641;-67
2023/01/22 05:44:05;;;;;;;19.90;11.17;;;;;;;;;;5065597;28;20436;-67
2023/01/22 05:46:31;;;;;;;21.47;11.70;;;;;;;;;;5059335;28;20202;-67
2023/01/22 05:48:57;;;;;;;19.07;11.40;;;;;;;;;;5060933;28;20183;-65
2023/01/22 05:51:23;;;;;;;17.83;10.73;;;;;;;;;;5061867;28;20663;-67
2023/01/22 05:53:49;;;;;;;15.13;11.27;;;;;;;;;;5067567;28;20460;-66
2023/01/22 05:56:14;;;;;;;22.07;12.10;;;;;;;;;;5064513;28;20247;-67
2023/01/22 05:58:40;;;;;;;17.80;12.07;;;;;;;;;;5055049;28;20193;-65
2023/01/22 06:01:06;;;;;;;19.50;11.63;;;;;;;;;;5058699;28;20209;-67
2023/01/22 06:03:31;;;;;;;17.67;11.17;;;;;;;;;;5066987;28;20247;-67
2023/01/22 06:06:04;;;;;;;19.27;12.43;;;;;;;;;;5068304;28;20456;-66
2023/01/22 06:08:30;;;;;;;18.47;10.53;;;;;;;;;;5061027;28;20553;-66
2023/01/22 06:11:04;;;;;;;15.00;10.00;;;;;;;;;;5054548;28;20436;-67
2023/01/22 06:13:30;;;;;;;19.53;10.97;;;;;;;;;;5060825;28;20471;-67
2023/01/22 06:15:56;;;;;;;27.00;11.70;;;;;;;;;;5065078;28;20507;-67
2023/01/22 06:18:22;;;;;;;16.03;9.90;;;;;;;;;;5066458;28;20479;-67
2023/01/22 06:20:48;;;;;;;15.37;9.97;;;;;;;;;;5058460;28;20190;-67
2023/01/22 06:23:13;;;;;;;26.17;12.47;;;;;;;;;;5058402;28;20437;-67
2023/01/22 06:25:39;;;;;;;20.37;11.77;;;;;;;;;;5069167;28;20178;-64
2023/01/22 06:28:04;;;;;;;14.50;10.60;;;;;;;;;;5071778;28;20171;-66
2023/01/22 06:30:30;;;;;;;19.90;11.90;;;;;;;;;;5071458;28;20174;-66
2023/01/22 06:32:55;;;;;;;21.67;12.77;;;;;;;;;;5056383;28;20206;-67
2023/01/22 06:35:21;;;;;;;13.97;9.83;;;;;;;;;;5065876;28;20264;-67
2023/01/22 06:37:47;;;;;;;28.33;13.10;;;;;;;;;;5061687;28;20228;-66
2023/01/22 06:40:13;;;;;;;18.60;11.13;;;;;;;;;;5064427;28;20436;-66
2023/01/22 06:42:39;;;;;;;12.83;9.33;;;;;;;;;;5066939;28;20276;-65
2023/01/22 06:45:05;;;;;;;16.23;10.60;;;;;;;;;;5068908;28;20251;-66
2023/01/22 06:47:30;;;;;;;17.07;11.03;;;;;;;;;;5069278;28;20503;-66
2023/01/22 06:49:56;;;;;;;16.80;10.00;;;;;;;;;;5070579;28;20977;-66
2023/01/22 06:52:21;;;;;;;28.97;12.00;;;;;;;;;;5062206;28;20297;-66
2023/01/22 06:54:47;;;;;;;26.63;12.10;;;;;;;;;;5070785;28;20184;-66
2023/01/22 06:57:12;;;;;;;24.10;12.27;;;;;;;;;;5071319;28;20662;-67
2023/01/22 06:59:37;;;;;;;20.57;11.87;;;;;;;;;;5071082;28;20174;-67
2023/01/22 07:02:03;;;;;;;24.50;12.10;;;;;;;;;;5069379;28;20216;-66
2023/01/22 07:04:28;;;;;;;24.60;13.10;;;;;;;;;;5070508;28;20174;-67
2023/01/22 07:06:54;;;;;;;19.10;14.13;;;;;;;;;;5070448;28;20206;-67
2023/01/22 07:09:19;;;;;;;17.43;12.20;;;;;;;;;;5067500;28;20201;-67
2023/01/22 07:11:45;;;;;;;22.00;14.17;;;;;;;;;;5049168;28;20211;-66
2023/01/22 07:14:10;;;;;;;18.63;13.00;;;;;;;;;;5067971;28;20683;-65
2023/01/22 07:16:36;;;;;;;21.10;13.47;;;;;;;;;;5065724;28;20285;-67
2023/01/22 07:19:01;;;;;;;30.70;14.83;;;;;;;;;;5059059;28;20197;-66
2023/01/22 07:21:27;;;;;;;26.23;13.87;;;;;;;;;;5063051;28;20178;-66
2023/01/22 07:23:53;;;;;;;19.67;13.40;;;;;;;;;;5062741;28;20174;-67
2023/01/22 07:26:18;;;;;;;24.00;12.77;;;;;;;;;;5042050;28;20544;-67
2023/01/22 07:28:44;;;;;;;17.00;12.40;;;;;;;;;;5014118;28;20441;-66
2023/01/22 07:31:11;;;;;;;21.43;11.97;;;;;;;;;;5015424;28;20219;-67
2023/01/22 07:33:36;;;;;;;16.50;10.80;;;;;;;;;;5030251;28;20511;-66
2023/01/22 07:36:02;;;;;;;17.50;11.17;;;;;;;;;;5042917;28;20476;-66
2023/01/22 07:38:28;;;;;;;14.27;11.33;;;;;;;;;;5068482;28;20303;-66
2023/01/22 07:40:59;;;;;;;16.57;11.37;;;;;;;;;;5069363;28;20530;-67
2023/01/22 07:43:25;;;;;;;19.47;11.47;;;;;;;;;;5068048;28;20411;-67
2023/01/22 07:45:50;;;;;;;18.87;12.80;;;;;;;;;;5070831;28;20435;-67
2023/01/22 07:48:16;;;;;;;17.20;10.73;;;;;;;;;;5052718;28;20197;-67
2023/01/22 07:50:41;;;;;;;18.80;12.30;;;;;;;;;;4977682;28;20189;-66
2023/01/22 07:53:08;;;;;;;19.47;12.10;;;;;;;;;;5049357;28;20216;-66
2023/01/22 07:55:33;;;;;;;27.03;12.77;;;;;;;;;;5048253;28;20259;-67
2023/01/22 07:58:05;;;;;;;17.93;11.63;;;;;;;;;;5048077;28;20528;-66
2023/01/22 08:00:33;;;;;;;18.60;11.90;;;;;;;;;;5058301;28;20182;-67
2023/01/22 08:02:59;;;;;;;17.67;10.47;;;;;;;;;;5061754;28;20416;-66
2023/01/22 08:05:24;;;;;;;19.80;11.73;;;;;;;;;;5056619;28;20953;-67
2023/01/22 08:07:50;;;;;;;17.00;12.23;;;;;;;;;;5059020;28;20815;-67
2023/01/22 08:10:16;;;;;;;15.63;10.00;;;;;;;;;;5054160;28;20810;-65
2023/01/22 08:12:42;;;;;;;21.13;10.93;;;;;;;;;;4963662;28;20535;-65
2023/01/22 08:15:09;;;;;;;18.03;11.67;;;;;;;;;;5052860;28;20430;-66
2023/01/22 08:17:35;;;;;;;19.10;11.83;;;;;;;;;;5051039;28;20452;-66
2023/01/22 08:20:00;;;;;;;18.03;11.40;;;;;;;;;;5055091;28;20512;-65
2023/01/22 08:22:26;;;;;;;22.30;12.50;;;;;;;;;;5056353;28;20181;-67
2023/01/22 08:24:52;;;;;;;21.40;13.93;;;;;;;;;;5059788;28;20193;-66
2023/01/22 08:27:19;;;;;;;20.43;12.67;;;;;;;;;;5060994;28;20197;-66
2023/01/22 08:29:44;;;;;;;21.70;13.60;;;;;;;;;;5055422;28;20482;-67
2023/01/22 08:32:10;;;;;;;21.10;13.23;;;;;;;;;;5044022;28;21133;-66
2023/01/22 08:34:35;;;;;;;26.13;12.63;;;;;;;;;;5016900;28;20185;-67
2023/01/22 08:37:00;;;;;;;21.53;12.80;;;;;;;;;;5055699;28;20206;-66
2023/01/22 08:39:26;;;;;;;19.47;13.47;;;;;;;;;;5060720;28;20194;-66
2023/01/22 08:41:56;;;;;;;43.10;13.50;;;;;;;;;;5053335;28;20189;-66
2023/01/22 08:44:21;;;;;;;34.40;14.53;;;;;;;;;;5056375;28;20177;-67
2023/01/22 08:46:47;;;;;;;27.90;12.93;;;;;;;;;;5059730;28;20452;-66
2023/01/22 08:49:12;;;;;;;18.73;11.30;;;;;;;;;;5057813;28;20186;-66
2023/01/22 08:51:37;;;;;;;20.07;13.60;;;;;;;;;;5055967;28;20740;-66
2023/01/22 08:54:03;;;;;;;21.37;11.70;;;;;;;;;;5063278;28;20174;-66
2023/01/22 08:56:28;;;;;;;23.67;12.77;;;;;;;;;;5066517;28;20212;-67
2023/01/22 08:58:55;;;;;;;19.57;11.37;;;;;;;;;;5046715;28;20210;-66
2023/01/22 09:01:21;;;;;;;20.50;12.87;;;;;;;;;;5054116;28;20193;-69
2023/01/22 09:03:48;;;;;;;20.57;12.73;;;;;;;;;;5061415;28;20524;-65
2023/01/22 09:06:13;;;;;;;20.10;12.17;;;;;;;;;;5066300;28;20284;-68
2023/01/22 09:08:38;;;;;;;17.93;10.80;;;;;;;;;;5061600;28;20519;-66
2023/01/22 09:11:05;;;;;;;39.27;12.93;;;;;;;;;;5063826;28;20268;-65
2023/01/22 09:13:30;;;;;;;42.00;15.93;;;;;;;;;;5062931;28;20230;-67
2023/01/22 09:16:17;;;;;;;15.27;10.43;;;;;;;;;;5059358;28;20502;-66
2023/01/22 09:18:42;;;;;;;19.23;11.00;;;;;;;;;;4965906;28;20234;-67
2023/01/22 09:21:07;;;;;;;16.17;11.20;;;;;;;;;;4968568;28;20471;-66
2023/01/22 09:23:33;;;;;;;18.80;11.53;;;;;;;;;;4969683;28;20201;-66
2023/01/22 09:26:00;;;;;;;15.67;10.20;;;;;;;;;;4968166;28;20205;-66
2023/01/22 09:28:25;;;;;;;17.63;10.70;;;;;;;;;;4968917;28;20202;-68
2023/01/22 09:30:50;;;;;;;15.40;11.13;;;;;;;;;;4968711;28;20474;-67
2023/01/22 09:33:16;;;;;;;19.37;11.37;;;;;;;;;;4968898;28;21116;-66
2023/01/22 09:35:41;;;;;;;24.17;12.17;;;;;;;;;;4968654;28;20678;-66
2023/01/22 09:38:11;;;;;;;17.67;11.30;;;;;;;;;;4968970;28;20200;-67
2023/01/22 09:40:49;;;;;;;16.83;12.10;;;;;;;;;;4968722;28;20197;-67
2023/01/22 09:43:39;;;;;;;15.00;9.63;;;;;;;;;;4966449;28;20437;-66
2023/01/22 09:46:14;;;;;;;16.00;10.13;;;;;;;;;;4971992;28;20466;-67
2023/01/22 09:48:44;;;;;;;15.47;9.77;;;;;;;;;;4971211;28;20484;-70
2023/01/22 09:51:14;;;;;;;17.13;11.17;;;;;;;;;;4971190;28;20452;-68
2023/01/22 09:53:41;;;;;;;15.30;9.17;;;;;;;;;;4961852;28;20546;-69
2023/01/22 09:56:19;;;;;;;9.70;7.60;;;;;;;;;;5025129;28;20580;-70
2023/01/22 09:58:50;;;;;;;7.50;6.33;;;;;;;;;;5056596;28;20554;-71
2023/01/22 10:01:18;;;;;;;10.20;6.83;;;;;;;;;;5061395;28;20857;-69
2023/01/22 10:03:54;;;;;;;9.93;7.63;;;;;;;;;;5067582;28;20447;-67
2023/01/22 10:06:22;;;;;;;10.63;6.80;;;;;;;;;;5064338;28;20862;-67
2023/01/22 10:08:59;;;;;;;9.63;7.00;;;;;;;;;;5067121;28;20442;-69
2023/01/22 10:11:24;;;;;;;11.10;7.60;;;;;;;;;;5052133;28;78441;-68
2023/01/22 10:13:54;;;;;;;13.03;7.80;;;;;;;;;;5054771;28;20996;-68
2023/01/22 10:16:20;;;;;;;59.53;14.00;;;;;;;;;;5052383;28;20210;-70
2023/01/22 10:18:58;;;;;;;36.53;10.87;;;;;;;;;;5051434;28;20806;-68
2023/01/22 10:21:28;;;;;;;19.77;8.33;;;;;;;;;;5067034;28;20468;-69
2023/01/22 10:23:55;;;;;;;11.60;7.90;;;;;;;;;;5063222;28;20441;-68
2023/01/22 10:26:28;;;;;;;9.70;7.50;;;;;;;;;;5061021;28;21140;-66
2023/01/22 10:29:16;;;;;;;17.03;10.00;;;;;;;;;;5057721;28;20429;-69
2023/01/22 10:31:46;;;;;;;21.50;8.63;;;;;;;;;;4979292;28;20443;-66
2023/01/22 10:34:20;;;;;;;110.03;20.47;;;;;;;;;;4967902;28;20468;-69
2023/01/22 10:36:49;;;;;;;17.40;8.53;;;;;;;;;;4983139;28;20554;-70
2023/01/22 10:39:15;;;;;;;12.87;8.50;;;;;;;;;;4978020;28;20447;-69
2023/01/22 10:41:43;;;;;;;11.87;8.27;;;;;;;;;;4980972;28;20435;-68
2023/01/22 10:44:08;;;;;;;11.07;8.00;;;;;;;;;;4978045;28;21025;-67
2023/01/22 10:46:33;;;;;;;10.53;7.60;;;;;;;;;;4976126;28;20471;-71
2023/01/22 10:49:05;;;;;;;13.43;8.13;;;;;;;;;;4982507;28;20197;-70
2023/01/22 10:51:35;;;;;;;12.93;7.73;;;;;;;;;;4982652;28;20280;-69
2023/01/22 10:54:01;;;;;;;11.83;8.07;;;;;;;;;;4974217;28;20429;-65
2023/01/22 10:56:32;;;;;;;12.23;7.70;;;;;;;;;;4978917;28;20904;-70
2023/01/22 10:59:01;;;;;;;12.17;7.77;;;;;;;;;;4980063;28;20352;-68
2023/01/22 11:01:30;;;;;;;12.37;8.23;;;;;;;;;;4987349;28;21009;-69
2023/01/22 11:03:55;;;;;;;10.70;8.30;;;;;;;;;;4983826;28;20488;-68
2023/01/22 11:06:27;;;;;;;20.30;8.60;;;;;;;;;;4978878;28;20472;-68
2023/01/22 11:09:12;;;;;;;17.50;8.00;;;;;;;;;;5024468;28;20194;-69
2023/01/22 11:11:42;;;;;;;10.40;8.43;;;;;;;;;;5055038;28;20957;-70
2023/01/22 11:14:28;;;;;;;15.20;8.17;;;;;;;;;;5059471;28;22045;-68
2023/01/22 11:16:59;;;;;;;11.47;7.50;;;;;;;;;;5057877;28;20459;-70
2023/01/22 11:19:31;;;;;;;10.70;7.87;;;;;;;;;;5057170;28;20439;-67
2023/01/22 11:21:57;;;;;;;16.03;9.20;;;;;;;;;;5062745;28;20436;-69
2023/01/22 11:24:35;;;;;;;10.27;8.07;;;;;;;;;;5053588;28;20516;-68
2023/01/22 11:27:21;;;;;;;22.83;10.10;;;;;;;;;;5057117;28;20206;-71
2023/01/22 11:30:17;;;;;;;11.57;8.40;;;;;;;;;;5051882;28;20442;-68
2023/01/22 11:32:43;;;;;;;10.60;8.80;;;;;;;;;;5044377;28;20479;-69
2023/01/22 11:35:24;;;;;;;22.03;9.63;;;;;;;;;;5060336;28;20440;-66
2023/01/22 11:38:04;;;;;;;11.80;7.70;;;;;;;;;;5056206;28;20214;-68
2023/01/22 11:40:32;;;;;;;15.90;9.23;;;;;;;;;;5055676;28;20466;-70
2023/01/22 11:43:00;;;;;;;19.67;8.40;;;;;;;;;;5060359;28;20440;-68
2023/01/22 11:45:49;;;;;;;13.40;8.73;;;;;;;;;;5053393;28;20493;-68
2023/01/22 11:48:29;;;;;;;13.80;8.20;;;;;;;;;;5048888;28;20444;-66
2023/01/22 11:51:33;;;;;;;12.03;8.63;;;;;;;;;;5064232;28;20519;-68
2023/01/22 11:54:10;;;;;;;15.13;10.00;;;;;;;;;;4995667;28;20478;-70
2023/01/22 11:56:47;;;;;;;12.67;8.43;;;;;;;;;;5052653;28;20466;-69
2023/01/22 11:59:31;;;;;;;14.00;9.87;;;;;;;;;;5057624;28;20436;-69
2023/01/22 12:02:21;;;;;;;20.23;10.73;;;;;;;;;;5059108;28;20461;-69
2023/01/22 12:05:00;;;;;;;15.93;8.80;;;;;;;;;;5054315;28;20477;-69
2023/01/22 12:07:41;;;;;;;15.17;9.10;;;;;;;;;;5061936;28;20520;-68
2023/01/22 12:10:06;;;;;;;10.33;8.27;;;;;;;;;;5067084;28;20439;-67
2023/01/22 12:12:48;;;;;;;12.50;9.00;;;;;;;;;;5056137;28;20469;-68
2023/01/22 12:15:34;;;;;;;10.17;7.63;;;;;;;;;;5062155;28;20185;-69
2023/01/22 12:18:27;;;;;;;13.87;9.33;;;;;;;;;;5056604;28;20461;-68
2023/01/22 12:21:06;;;;;;;11.27;8.93;;;;;;;;;;5055611;28;20436;-69
2023/01/22 12:23:48;;;;;;;10.37;8.50;;;;;;;;;;5060081;28;20432;-70
2023/01/22 12:26:19;;;;;;;13.87;8.70;;;;;;;;;;5059123;28;20456;-67
2023/01/22 12:28:53;;;;;;;13.63;9.43;;;;;;;;;;5061574;28;20839;-67
2023/01/22 12:31:50;;;;;;;14.27;8.37;;;;;;;;;;5054560;28;20483;-69
2023/01/22 12:34:26;;;;;;;12.27;7.80;;;;;;;;;;4988304;28;21015;-67
2023/01/22 12:36:54;;;;;;;10.67;8.47;;;;;;;;;;4985271;28;20459;-68
2023/01/22 12:39:29;;;;;;;11.43;7.53;;;;;;;;;;4991553;28;21127;-70
2023/01/22 12:42:04;;;;;;;12.77;8.83;;;;;;;;;;4962492;28;20439;-68
2023/01/22 12:44:59;;;;;;;10.43;8.10;;;;;;;;;;4984128;28;20438;-70
2023/01/22 12:47:47;;;;;;;12.30;9.70;;;;;;;;;;4954762;28;20496;-68
2023/01/22 12:50:21;;;;;;;10.80;7.47;;;;;;;;;;4972316;28;20959;-69
2023/01/22 12:53:04;;;;;;;11.23;8.57;;;;;;;;;;4985886;28;20570;-66
2023/01/22 12:55:39;;;;;;;11.93;8.00;;;;;;;;;;4980417;28;20450;-69
2023/01/22 12:58:20;;;;;;;11.10;9.47;;;;;;;;;;4983527;28;20447;-69
2023/01/22 13:00:57;;;;;;;11.27;8.17;;;;;;;;;;4990815;28;20470;-68
2023/01/22 13:03:27;;;;;;;10.87;8.17;;;;;;;;;;4985115;28;20439;-70
2023/01/22 13:05:53;;;;;;;8.00;7.17;;;;;;;;;;4993262;28;20442;-69
2023/01/22 13:08:18;;;;;;;9.77;7.03;;;;;;;;;;5003375;28;20493;-68
2023/01/22 13:10:59;;;;;;;11.30;7.70;;;;;;;;;;5018844;28;20790;-70
2023/01/22 13:13:38;;;;;;;11.37;7.10;;;;;;;;;;5067589;28;20201;-68
2023/01/22 13:16:05;;;;;;;9.43;8.00;;;;;;;;;;5065360;28;20456;-70
2023/01/22 13:18:40;;;;;;;10.67;7.20;;;;;;;;;;5069621;28;20432;-68
2023/01/22 13:21:14;;;;;;;9.97;6.83;;;;;;;;;;5072307;28;20431;-73
2023/01/22 13:23:45;;;;;;;8.73;7.20;;;;;;;;;;5059282;28;20501;-71
2023/01/22 13:26:26;;;;;;;9.10;7.27;;;;;;;;;;5063295;28;20450;-69
2023/01/22 13:28:53;;;;;;;10.70;6.70;;;;;;;;;;5064375;28;20454;-66
2023/01/22 13:31:19;;;;;;;10.17;6.43;;;;;;;;;;5064276;28;20476;-69
2023/01/22 13:34:07;;;;;;;8.57;7.03;;;;;;;;;;5061427;28;20523;-69
2023/01/22 13:36:38;;;;;;;9.83;7.53;;;;;;;;;;5059266;28;20274;-70
2023/01/22 13:39:03;;;;;;;9.17;7.20;;;;;;;;;;5060879;28;20454;-70
2023/01/22 13:41:34;;;;;;;9.90;7.87;;;;;;;;;;5070264;28;21102;-70
2023/01/22 13:44:02;;;;;;;10.53;8.00;;;;;;;;;;5068785;28;20643;-69
2023/01/22 13:46:27;;;;;;;9.53;7.63;;;;;;;;;;5071110;28;20468;-70
2023/01/22 13:49:22;;;;;;;9.93;7.17;;;;;;;;;;5071365;28;20803;-69
2023/01/22 13:51:49;;;;;;;7.93;6.47;;;;;;;;;;5051042;28;20193;-69
2023/01/22 13:54:38;;;;;;;10.47;8.20;;;;;;;;;;5052886;28;20452;-68
2023/01/22 13:57:05;;;;;;;8.17;7.23;;;;;;;;;;5050569;28;20452;-69
2023/01/22 13:59:33;;;;;;;12.40;7.73;;;;;;;;;;5050972;28;20417;-70
2023/01/22 14:02:17;;;;;;;14.30;7.50;;;;;;;;;;5050159;28;20512;-69
2023/01/22 14:04:43;;;;;;;10.07;7.17;;;;;;;;;;5053903;28;20413;-68
2023/01/22 14:07:16;;;;;;;16.97;8.53;;;;;;;;;;5063313;28;20868;-68
2023/01/22 14:09:42;;;;;;;21.73;8.10;;;;;;;;;;5071242;28;20185;-69
2023/01/22 14:12:20;;;;;;;9.63;7.97;;;;;;;;;;5069923;28;20496;-69
2023/01/22 14:14:46;;;;;;;9.50;7.23;;;;;;;;;;5065254;28;20612;-69
2023/01/22 14:17:23;;;;;;;9.83;7.50;;;;;;;;;;5067819;28;20455;-67
2023/01/22 14:19:49;;;;;;;11.53;8.43;;;;;;;;;;5070995;28;21186;-69
2023/01/22 14:22:15;;;;;;;10.23;7.60;;;;;;;;;;5068756;28;20440;-69
2023/01/22 14:24:40;;;;;;;13.57;7.80;;;;;;;;;;5069923;28;20175;-69
2023/01/22 14:27:06;;;;;;;10.87;9.40;;;;;;;;;;5070884;28;20211;-68
2023/01/22 14:29:31;;;;;;;12.23;8.13;;;;;;;;;;5069475;28;20201;-70
2023/01/22 14:31:56;;;;;;;10.87;7.67;;;;;;;;;;5069732;28;20208;-70
2023/01/22 14:34:22;;;;;;;9.27;7.40;;;;;;;;;;5059799;28;20266;-70
2023/01/22 14:36:48;;;;;;;8.97;7.60;;;;;;;;;;5050041;28;20285;-69
2023/01/22 14:39:13;;;;;;;12.93;8.43;;;;;;;;;;5058737;28;20615;-68
2023/01/22 14:41:39;;;;;;;12.83;8.03;;;;;;;;;;5062844;28;20480;-70
2023/01/22 14:44:04;;;;;;;8.67;6.77;;;;;;;;;;5069855;28;20190;-70